createdAt,value
2023-01-12T00:00:05.493Z,3.33
2023-01-12T00:02:36.391Z,3.20
2023-01-12T00:05:06.368Z,2.90
2023-01-12T00:07:34.314Z,3.50
2023-01-12T00:10:02.279Z,3.07
2023-01-12T00:12:30.265Z,2.80
2023-01-12T00:14:58.269Z,3.70
2023-01-12T00:17:26.267Z,3.10
2023-01-12T00:19:54.391Z,3.30
2023-01-12T00:22:23.926Z,3.27
2023-01-12T00:24:52.529Z,3.67
2023-01-12T00:27:21.936Z,3.70
2023-01-12T00:29:50.048Z,3.47
2023-01-12T00:32:20.450Z,3.27
2023-01-12T00:34:48.590Z,3.10
2023-01-12T00:37:16.924Z,3.10
2023-01-12T00:40:00.992Z,2.77
2023-01-12T00:42:47.705Z,4.20
2023-01-12T00:45:25.289Z,3.70
2023-01-12T00:47:54.537Z,3.03
2023-01-12T00:50:23.656Z,3.00
2023-01-12T00:52:51.619Z,3.03
2023-01-12T00:55:20.895Z,2.83
2023-01-12T00:57:49.109Z,2.97
2023-01-12T01:00:18.255Z,3.17
2023-01-12T01:02:46.297Z,3.17
2023-01-12T01:05:14.422Z,3.23
2023-01-12T01:07:42.423Z,3.40
2023-01-12T01:10:11.777Z,3.33
2023-01-12T01:12:41.245Z,3.30
2023-01-12T01:15:10.390Z,2.80
2023-01-12T01:17:38.344Z,2.83
2023-01-12T01:20:07.116Z,3.33
2023-01-12T01:22:35.650Z,3.33
2023-01-12T01:25:03.605Z,3.00
2023-01-12T01:27:35.773Z,3.13
2023-01-12T01:30:05.678Z,3.63
2023-01-12T01:32:33.590Z,3.00
2023-01-12T01:35:01.607Z,3.07
2023-01-12T01:37:29.870Z,3.63
2023-01-12T01:39:57.781Z,3.37
2023-01-12T01:42:28.951Z,3.37
2023-01-12T01:44:59.130Z,3.00
2023-01-12T01:47:38.959Z,2.63
2023-01-12T01:50:14.758Z,3.40
2023-01-12T01:52:46.250Z,2.77
2023-01-12T01:55:18.280Z,3.17
2023-01-12T01:57:49.791Z,2.70
2023-01-12T02:00:18.749Z,3.83
2023-01-12T02:02:49.421Z,3.40
2023-01-12T02:05:20.229Z,2.87
2023-01-12T02:07:48.748Z,2.83
2023-01-12T02:10:17.495Z,2.87
2023-01-12T02:13:09.214Z,2.90
2023-01-12T02:16:04.366Z,3.43
2023-01-12T02:18:40.771Z,2.77
2023-01-12T02:21:22.389Z,3.37
2023-01-12T02:24:24.587Z,2.80
2023-01-12T02:27:31.656Z,2.70
2023-01-12T02:30:23.589Z,2.47
2023-01-12T02:33:07.537Z,3.43
2023-01-12T02:35:45.243Z,2.33
2023-01-12T02:38:21.159Z,3.23
2023-01-12T02:40:59.295Z,2.27
2023-01-12T02:43:29.409Z,2.80
2023-01-12T02:46:03.087Z,2.30
2023-01-12T02:48:37.803Z,2.63
2023-01-12T02:51:11.827Z,2.53
2023-01-12T02:53:44.771Z,2.20
2023-01-12T02:56:19.582Z,2.97
2023-01-12T02:58:52.700Z,2.90
2023-01-12T03:01:23.522Z,2.67
2023-01-12T03:03:59.732Z,2.20
2023-01-12T03:06:42.891Z,2.30
2023-01-12T03:09:11.399Z,2.77
2023-01-12T03:11:43.959Z,3.10
2023-01-12T03:14:14.731Z,2.23
2023-01-12T03:16:44.607Z,2.40
2023-01-12T03:19:19.444Z,2.70
2023-01-12T03:21:51.398Z,2.60
2023-01-12T03:24:25.974Z,2.27
2023-01-12T03:26:59.902Z,2.60
2023-01-12T03:29:33.994Z,2.13
2023-01-12T03:32:02.672Z,2.90
2023-01-12T03:34:33.512Z,2.20
2023-01-12T03:37:09.200Z,2.80
2023-01-12T03:39:43.407Z,2.53
2023-01-12T03:42:16.513Z,2.77
2023-01-12T03:44:53.929Z,2.30
2023-01-12T03:47:25.921Z,2.77
2023-01-12T03:49:58.917Z,3.73
2023-01-12T03:52:28.348Z,2.53
2023-01-12T03:54:59.494Z,3.20
2023-01-12T03:57:29.063Z,2.33
2023-01-12T03:59:57.874Z,2.60
2023-01-12T04:02:25.970Z,2.30
2023-01-12T04:04:55.356Z,2.40
2023-01-12T04:07:23.622Z,2.10
2023-01-12T04:09:51.655Z,2.27
2023-01-12T04:12:26.213Z,2.33
2023-01-12T04:14:54.221Z,2.50
2023-01-12T04:17:25.077Z,2.87
2023-01-12T04:19:53.214Z,2.43
2023-01-12T04:22:48.583Z,2.57
2023-01-12T04:25:18.766Z,2.40
2023-01-12T04:27:51.599Z,2.30
2023-01-12T04:30:23.609Z,2.37
2023-01-12T04:32:52.324Z,2.13
2023-01-12T04:35:20.345Z,2.77
2023-01-12T04:37:49.591Z,2.43
2023-01-12T04:40:18.581Z,2.37
2023-01-12T04:43:02.144Z,1.97
2023-01-12T04:45:33.405Z,2.77
2023-01-12T04:48:05.784Z,2.40
2023-01-12T04:50:33.949Z,2.00
2023-01-12T04:53:05.323Z,2.43
2023-01-12T04:55:36.400Z,2.30
2023-01-12T04:58:04.759Z,2.47
2023-01-12T05:00:32.831Z,2.50
2023-01-12T05:03:02.423Z,2.03
2023-01-12T05:05:31.975Z,1.93
2023-01-12T05:08:18.330Z,2.20
2023-01-12T05:10:52.197Z,3.20
2023-01-12T05:13:20.269Z,2.67
2023-01-12T05:15:48.455Z,2.27
2023-01-12T05:18:18.034Z,2.40
2023-01-12T05:20:46.009Z,2.57
2023-01-12T05:23:13.995Z,2.23
2023-01-12T05:25:41.999Z,2.30
2023-01-12T05:28:11.286Z,1.70
2023-01-12T05:30:39.295Z,2.30
2023-01-12T05:33:07.296Z,2.50
2023-01-12T05:35:35.232Z,2.17
2023-01-12T05:38:03.214Z,2.57
2023-01-12T05:40:31.153Z,3.00
2023-01-12T05:43:16.455Z,1.90
2023-01-12T05:45:45.746Z,3.10
2023-01-12T05:48:13.752Z,1.80
2023-01-12T05:50:41.941Z,2.73
2023-01-12T05:53:10.262Z,2.63
2023-01-12T05:55:38.830Z,2.07
2023-01-12T05:58:06.999Z,2.23
2023-01-12T06:00:35.064Z,3.20
2023-01-12T06:03:04.560Z,2.17
2023-01-12T06:05:32.501Z,2.33
2023-01-12T06:08:02.713Z,2.43
2023-01-12T06:10:36.366Z,2.03
2023-01-12T06:13:21.729Z,2.73
2023-01-12T06:15:49.793Z,2.37
2023-01-12T06:18:22.490Z,2.37
2023-01-12T06:20:50.424Z,1.93
2023-01-12T06:23:18.344Z,2.77
2023-01-12T06:25:49.047Z,1.97
2023-01-12T06:28:18.845Z,2.30
2023-01-12T06:30:46.883Z,2.10
2023-01-12T06:33:17.802Z,2.30
2023-01-12T06:35:50.567Z,2.30
2023-01-12T06:38:19.096Z,2.93
2023-01-12T06:40:47.569Z,2.00
2023-01-12T06:43:15.595Z,2.33
2023-01-12T06:45:44.013Z,2.60
2023-01-12T06:48:12.180Z,2.30
2023-01-12T06:50:40.152Z,3.00
2023-01-12T06:53:09.532Z,2.10
2023-01-12T06:55:37.444Z,2.30
2023-01-12T06:58:05.691Z,2.07
2023-01-12T07:00:33.973Z,2.40
2023-01-12T07:03:01.990Z,2.80
2023-01-12T07:05:29.966Z,3.03
2023-01-12T07:08:03.294Z,2.90
2023-01-12T07:10:33.345Z,4.87
2023-01-12T07:13:01.602Z,3.50
2023-01-12T07:15:30.211Z,3.40
2023-01-12T07:17:58.870Z,3.50
2023-01-12T07:20:28.649Z,3.40
2023-01-12T07:22:58.292Z,3.27
2023-01-12T07:25:29.195Z,2.30
2023-01-12T07:27:59.283Z,2.23
2023-01-12T07:30:28.128Z,2.07
2023-01-12T07:32:56.394Z,2.60
2023-01-12T07:35:25.229Z,2.73
2023-01-12T07:37:54.784Z,2.50
2023-01-12T07:40:22.848Z,2.47
2023-01-12T07:42:58.727Z,2.30
2023-01-12T07:45:28.674Z,2.07
2023-01-12T07:47:57.023Z,1.90
2023-01-12T07:50:26.043Z,2.33
2023-01-12T07:52:54.260Z,1.90
2023-01-12T07:55:22.377Z,2.00
2023-01-12T07:57:57.818Z,1.90
2023-01-12T08:00:28.284Z,1.97
2023-01-12T08:02:59.044Z,2.00
2023-01-12T08:05:27.026Z,2.03
2023-01-12T08:07:55.015Z,2.00
2023-01-12T08:10:22.999Z,2.00
2023-01-12T08:12:51.883Z,1.87
2023-01-12T08:15:22.105Z,1.90
2023-01-12T08:17:55.893Z,2.10
2023-01-12T08:20:30.263Z,1.83
2023-01-12T08:23:08.687Z,1.63
2023-01-12T08:25:44.811Z,1.70
2023-01-12T08:28:17.575Z,1.53
2023-01-12T08:30:48.138Z,1.63
2023-01-12T08:33:17.982Z,1.70
2023-01-12T08:35:47.060Z,1.40
2023-01-12T08:38:19.345Z,1.40
2023-01-12T08:41:05.140Z,1.53
2023-01-12T08:43:50.864Z,1.43
2023-01-12T08:46:19.009Z,1.77
2023-01-12T08:48:48.310Z,1.43
2023-01-12T08:51:16.277Z,1.20
2023-01-12T08:53:44.186Z,1.10
2023-01-12T08:56:12.241Z,1.47
2023-01-12T08:58:40.167Z,1.43
2023-01-12T09:01:09.736Z,1.07
2023-01-12T09:03:37.999Z,1.27
2023-01-12T09:06:17.966Z,1.10
2023-01-12T09:08:46.695Z,1.00
2023-01-12T09:11:16.579Z,1.00
2023-01-12T09:13:44.996Z,1.10
2023-01-12T09:16:14.610Z,1.10
2023-01-12T09:18:42.846Z,1.00
2023-01-12T09:21:13.235Z,1.17
2023-01-12T09:23:43.171Z,1.30
2023-01-12T09:26:12.944Z,1.20
2023-01-12T09:28:41.637Z,1.13
2023-01-12T09:31:12.107Z,1.07
2023-01-12T09:33:41.262Z,1.40
2023-01-12T09:36:13.217Z,1.33
2023-01-12T09:38:44.277Z,1.07
2023-01-12T09:41:16.379Z,1.20
2023-01-12T09:44:02.397Z,1.27
2023-01-12T09:46:53.844Z,1.20
2023-01-12T09:49:27.051Z,1.20
2023-01-12T09:52:01.690Z,1.23
2023-01-12T09:54:34.852Z,1.10
2023-01-12T09:57:20.658Z,1.40
2023-01-12T10:00:01.469Z,1.10
2023-01-12T10:02:33.978Z,1.33
2023-01-12T10:05:17.728Z,1.40
2023-01-12T10:07:45.921Z,1.47
2023-01-12T10:10:19.728Z,1.63
2023-01-12T10:12:59.149Z,1.93
2023-01-12T10:15:39.475Z,1.20
2023-01-12T10:18:14.162Z,1.50
2023-01-12T10:20:45.205Z,1.20
2023-01-12T10:23:16.857Z,1.30
2023-01-12T10:25:48.752Z,1.40
2023-01-12T10:28:24.116Z,1.67
2023-01-12T10:30:55.316Z,1.10
2023-01-12T10:33:27.809Z,1.00
2023-01-12T10:35:59.021Z,1.57
2023-01-12T10:38:33.779Z,1.33
2023-01-12T10:41:21.661Z,1.43
2023-01-12T10:44:14.185Z,1.17
2023-01-12T10:46:42.370Z,1.07
2023-01-12T10:49:19.146Z,1.00
2023-01-12T10:51:53.303Z,1.30
2023-01-12T10:54:24.264Z,1.20
2023-01-12T10:56:59.968Z,2.77
2023-01-12T10:59:31.521Z,1.20
2023-01-12T11:02:15.438Z,1.30
2023-01-12T11:04:45.199Z,1.17
2023-01-12T11:07:15.559Z,1.70
2023-01-12T11:09:44.967Z,0.93
2023-01-12T11:12:30.993Z,1.00
2023-01-12T11:15:02.420Z,1.30
2023-01-12T11:17:56.576Z,1.20
2023-01-12T11:20:31.778Z,1.40
2023-01-12T11:23:05.236Z,1.10
2023-01-12T11:25:36.609Z,0.80
2023-01-12T11:28:13.713Z,1.00
2023-01-12T11:30:47.668Z,1.30
2023-01-12T11:33:21.124Z,1.03
2023-01-12T11:35:54.888Z,0.90
2023-01-12T11:38:28.735Z,1.50
2023-01-12T11:40:58.573Z,1.60
2023-01-12T11:43:51.167Z,1.10
2023-01-12T11:46:24.812Z,1.10
2023-01-12T11:49:00.801Z,1.10
2023-01-12T11:51:29.228Z,1.07
2023-01-12T11:53:57.697Z,1.10
2023-01-12T11:56:59.398Z,1.00
2023-01-12T11:59:41.803Z,0.97
2023-01-12T12:02:22.971Z,0.80
2023-01-12T12:05:00.734Z,0.80
2023-01-12T12:07:45.253Z,0.90
2023-01-12T12:10:21.232Z,1.10
2023-01-12T12:13:08.879Z,0.80
2023-01-12T12:15:48.471Z,1.25
2023-01-12T12:18:30.061Z,0.90
2023-01-12T12:21:10.583Z,0.93
2023-01-12T12:23:49.458Z,1.17
2023-01-12T12:26:25.444Z,1.10
2023-01-12T12:29:09.809Z,1.17
2023-01-12T12:31:52.746Z,0.93
2023-01-12T12:34:38.212Z,1.00
2023-01-12T12:37:11.019Z,1.10
2023-01-12T12:40:02.460Z,1.17
2023-01-12T12:43:08.579Z,1.10
2023-01-12T12:45:48.058Z,0.97
2023-01-12T12:48:24.633Z,1.03
2023-01-12T12:51:00.024Z,1.00
2023-01-12T12:53:30.926Z,1.00
2023-01-12T12:56:02.728Z,1.00
2023-01-12T12:58:40.059Z,1.00
2023-01-12T13:01:44.966Z,0.90
2023-01-12T13:04:14.925Z,0.70
2023-01-12T13:06:49.261Z,1.00
2023-01-12T13:09:40.280Z,0.70
2023-01-12T13:12:33.948Z,0.80
2023-01-12T13:15:24.089Z,1.00
2023-01-12T13:17:53.823Z,0.87
2023-01-12T13:20:37.965Z,1.23
2023-01-12T13:23:56.369Z,0.83
2023-01-12T13:26:52.293Z,0.90
2023-01-12T13:29:40.514Z,1.43
2023-01-12T13:32:43.479Z,0.97
2023-01-12T13:35:53.396Z,1.17
2023-01-12T13:38:36.201Z,0.80
2023-01-12T13:41:17.636Z,0.60
2023-01-12T13:43:54.298Z,0.50
2023-01-12T13:46:25.436Z,0.70
2023-01-12T13:48:57.004Z,0.60
2023-01-12T13:51:29.382Z,0.90
2023-01-12T13:54:02.377Z,0.60
2023-01-12T13:56:32.362Z,0.60
2023-01-12T13:59:04.021Z,0.70
2023-01-12T14:01:35.174Z,0.50
2023-01-12T14:04:30.081Z,0.77
2023-01-12T14:07:06.380Z,0.60
2023-01-12T14:09:43.856Z,0.80
2023-01-12T14:12:39.737Z,0.60
2023-01-12T14:15:52.008Z,0.50
2023-01-12T14:18:22.357Z,0.53
2023-01-12T14:20:52.039Z,0.50
2023-01-12T14:23:24.056Z,1.00
2023-01-12T14:26:06.695Z,0.83
2023-01-12T14:28:36.957Z,0.53
2023-01-12T14:31:08.545Z,0.60
2023-01-12T14:33:41.112Z,0.80
2023-01-12T14:36:15.532Z,0.50
2023-01-12T14:38:45.281Z,0.70
2023-01-12T14:41:36.853Z,0.60
2023-01-12T14:44:23.368Z,0.60
2023-01-12T14:46:54.822Z,0.70
2023-01-12T14:49:28.781Z,0.67
2023-01-12T14:51:58.510Z,0.73
2023-01-12T14:54:28.555Z,0.60
2023-01-12T14:57:00.125Z,0.53
2023-01-12T14:59:30.409Z,1.00
2023-01-12T15:02:32.604Z,1.20
2023-01-12T15:05:06.486Z,1.10
2023-01-12T15:07:37.281Z,1.00
2023-01-12T15:10:30.074Z,0.90
2023-01-12T15:12:59.122Z,0.60
2023-01-12T15:15:48.746Z,0.83
2023-01-12T15:18:34.142Z,0.90
2023-01-12T15:21:22.080Z,0.70
2023-01-12T15:24:07.761Z,0.70
2023-01-12T15:26:37.439Z,0.70
2023-01-12T15:29:05.524Z,0.80
2023-01-12T15:31:39.256Z,0.80
2023-01-12T15:34:13.220Z,0.73
2023-01-12T15:36:42.479Z,0.50
2023-01-12T15:39:14.845Z,0.73
2023-01-12T15:42:00.381Z,0.63
2023-01-12T15:44:28.316Z,0.83
2023-01-12T15:46:56.276Z,0.90
2023-01-12T15:49:27.252Z,0.80
2023-01-12T15:51:56.718Z,0.70
2023-01-12T15:54:32.917Z,0.60
2023-01-12T15:57:03.001Z,0.60
2023-01-12T15:59:30.988Z,0.50
2023-01-12T16:02:20.991Z,0.60
2023-01-12T16:04:50.686Z,0.70
2023-01-12T16:07:20.139Z,0.67
2023-01-12T16:09:52.664Z,0.80
2023-01-12T16:12:21.260Z,0.80
2023-01-12T16:14:58.668Z,0.80
2023-01-12T16:17:27.151Z,0.97
2023-01-12T16:19:57.007Z,1.00
2023-01-12T16:22:29.159Z,1.03
2023-01-12T16:24:58.090Z,0.90
2023-01-12T16:27:32.995Z,0.60
2023-01-12T16:30:15.455Z,0.70
2023-01-12T16:32:46.616Z,0.90
2023-01-12T16:35:16.018Z,1.00
2023-01-12T16:37:45.811Z,0.70
2023-01-12T16:40:14.306Z,0.80
2023-01-12T16:42:42.213Z,0.73
2023-01-12T16:45:12.307Z,0.70
2023-01-12T16:47:40.275Z,0.73
2023-01-12T16:50:09.012Z,0.60
2023-01-12T16:52:37.020Z,0.83
2023-01-12T16:55:07.180Z,0.80
2023-01-12T16:57:35.223Z,0.70
2023-01-12T17:00:03.448Z,1.03
2023-01-12T17:02:32.123Z,1.30
2023-01-12T17:05:02.203Z,1.00
2023-01-12T17:07:32.377Z,0.80
2023-01-12T17:10:00.601Z,0.87
2023-01-12T17:12:30.157Z,1.00
2023-01-12T17:14:58.667Z,1.00
2023-01-12T17:17:31.536Z,1.10
2023-01-12T17:19:59.809Z,0.90
2023-01-12T17:22:28.905Z,0.80
2023-01-12T17:24:59.137Z,1.23
2023-01-12T17:27:28.857Z,1.90
2023-01-12T17:29:59.481Z,2.33
2023-01-12T17:32:27.646Z,1.73
2023-01-12T17:34:55.737Z,1.00
2023-01-12T17:37:25.768Z,1.07
2023-01-12T17:39:53.839Z,0.73
2023-01-12T17:42:38.973Z,1.30
2023-01-12T17:45:09.478Z,0.90
2023-01-12T17:47:37.410Z,1.10
2023-01-12T17:50:05.864Z,1.00
2023-01-12T17:52:34.526Z,1.10
2023-01-12T17:55:02.587Z,1.30
2023-01-12T17:57:36.025Z,1.10
2023-01-12T18:00:06.240Z,1.00
2023-01-12T18:02:35.921Z,0.70
2023-01-12T18:05:04.146Z,0.80
2023-01-12T18:07:32.926Z,0.90
2023-01-12T18:10:00.950Z,0.80
2023-01-12T18:12:31.923Z,0.80
2023-01-12T18:15:00.011Z,0.90
2023-01-12T18:17:30.560Z,0.90
2023-01-12T18:19:59.911Z,0.87
2023-01-12T18:22:32.620Z,1.10
2023-01-12T18:25:02.301Z,1.00
2023-01-12T18:27:33.281Z,0.70
2023-01-12T18:30:03.070Z,1.10
2023-01-12T18:32:31.044Z,0.73
2023-01-12T18:35:00.460Z,0.90
2023-01-12T18:37:30.764Z,0.90
2023-01-12T18:40:02.346Z,1.17
2023-01-12T18:42:50.055Z,0.93
2023-01-12T18:45:18.828Z,1.00
2023-01-12T18:48:07.371Z,1.00
2023-01-12T18:50:54.318Z,1.13
2023-01-12T18:53:29.265Z,0.90
2023-01-12T18:55:58.039Z,1.03
2023-01-12T18:58:28.223Z,1.50
2023-01-12T19:00:58.414Z,0.80
2023-01-12T19:03:26.515Z,0.90
2023-01-12T19:06:00.193Z,1.30
2023-01-12T19:08:47.068Z,0.97
2023-01-12T19:11:17.101Z,1.33
2023-01-12T19:14:02.578Z,0.80
2023-01-12T19:16:48.467Z,1.00
2023-01-12T19:19:16.538Z,1.00
2023-01-12T19:22:03.379Z,0.70
2023-01-12T19:24:49.003Z,0.97
2023-01-12T19:27:34.662Z,1.20
2023-01-12T19:30:02.706Z,1.10
2023-01-12T19:32:32.423Z,1.00
2023-01-12T19:35:11.040Z,1.00
2023-01-12T19:37:42.552Z,0.87
2023-01-12T19:40:17.978Z,1.00
2023-01-12T19:43:03.528Z,0.80
2023-01-12T19:45:33.117Z,0.90
2023-01-12T19:48:01.608Z,1.10
2023-01-12T19:50:30.379Z,1.00
2023-01-12T19:52:59.854Z,0.80
2023-01-12T19:55:28.040Z,0.90
2023-01-12T19:57:58.466Z,1.17
2023-01-12T20:00:28.181Z,1.17
2023-01-12T20:02:59.308Z,1.33
2023-01-12T20:05:27.341Z,1.27
2023-01-12T20:07:55.956Z,1.40
2023-01-12T20:10:25.605Z,1.07
2023-01-12T20:12:54.741Z,0.90
2023-01-12T20:15:22.885Z,0.80
2023-01-12T20:17:51.099Z,1.30
2023-01-12T20:20:19.860Z,1.33
2023-01-12T20:22:50.727Z,0.83
2023-01-12T20:25:18.949Z,0.80
2023-01-12T20:27:49.227Z,0.83
2023-01-12T20:30:28.474Z,0.70
2023-01-12T20:33:00.461Z,0.90
2023-01-12T20:35:28.613Z,0.90
2023-01-12T20:37:56.648Z,0.90
2023-01-12T20:40:24.631Z,0.90
2023-01-12T20:42:53.976Z,1.07
2023-01-12T20:45:21.979Z,0.87
2023-01-12T20:47:49.942Z,1.00
2023-01-12T20:50:18.968Z,0.90
2023-01-12T20:52:48.200Z,0.80
2023-01-12T20:55:16.432Z,1.07
2023-01-12T20:57:44.406Z,0.93
2023-01-12T21:00:14.973Z,0.90
2023-01-12T21:02:42.931Z,0.93
2023-01-12T21:05:11.027Z,1.03
2023-01-12T21:07:39.549Z,1.50
2023-01-12T21:10:09.833Z,1.20
2023-01-12T21:12:38.233Z,1.00
2023-01-12T21:15:07.184Z,1.07
2023-01-12T21:17:39.058Z,1.40
2023-01-12T21:20:08.430Z,1.13
2023-01-12T21:22:36.442Z,1.10
2023-01-12T21:25:05.227Z,2.20
2023-01-12T21:27:33.209Z,1.40
2023-01-12T21:30:01.316Z,2.70
2023-01-12T21:32:29.713Z,1.60
2023-01-12T21:34:59.121Z,1.53
2023-01-12T21:37:27.073Z,1.53
2023-01-12T21:39:55.014Z,1.13
2023-01-12T21:42:40.228Z,1.37
2023-01-12T21:45:09.320Z,1.20
2023-01-12T21:47:37.443Z,1.60
2023-01-12T21:50:07.628Z,1.20
2023-01-12T21:52:36.613Z,1.10
2023-01-12T21:55:05.130Z,1.67
2023-01-12T21:57:33.130Z,2.03
2023-01-12T22:00:01.273Z,1.33
2023-01-12T22:02:31.242Z,1.30
2023-01-12T22:04:59.232Z,1.30
2023-01-12T22:07:28.995Z,1.70
2023-01-12T22:10:17.244Z,1.33
2023-01-12T22:12:45.202Z,1.50
2023-01-12T22:15:13.617Z,1.57
2023-01-12T22:17:41.928Z,1.53
2023-01-12T22:20:11.508Z,1.67
2023-01-12T22:22:41.366Z,1.23
2023-01-12T22:25:10.892Z,1.13
2023-01-12T22:27:41.387Z,1.27
2023-01-12T22:30:11.464Z,1.30
2023-01-12T22:32:41.553Z,1.00
2023-01-12T22:35:10.433Z,1.00
2023-01-12T22:37:41.049Z,1.17
2023-01-12T22:40:11.515Z,1.20
2023-01-12T22:42:57.286Z,1.03
2023-01-12T22:45:25.219Z,1.00
2023-01-12T22:47:53.753Z,1.07
2023-01-12T22:50:21.883Z,0.73
2023-01-12T22:52:54.938Z,1.00
2023-01-12T22:55:24.299Z,1.00
2023-01-12T22:57:52.474Z,1.00
2023-01-12T23:00:22.513Z,0.80
2023-01-12T23:03:02.963Z,0.87
2023-01-12T23:05:35.983Z,0.90
2023-01-12T23:08:06.799Z,0.90
2023-01-12T23:10:34.747Z,1.07
2023-01-12T23:13:17.701Z,0.80
2023-01-12T23:15:48.126Z,1.10
2023-01-12T23:18:18.431Z,0.87
2023-01-12T23:20:46.631Z,0.73
2023-01-12T23:23:18.142Z,0.97
2023-01-12T23:25:47.022Z,1.10
2023-01-12T23:28:15.545Z,0.93
2023-01-12T23:30:44.115Z,1.00
2023-01-12T23:33:12.166Z,1.00
2023-01-12T23:35:41.961Z,1.10
2023-01-12T23:38:16.203Z,1.20
2023-01-12T23:40:44.239Z,1.30
2023-01-12T23:43:12.213Z,1.40
2023-01-12T23:45:40.159Z,0.90
2023-01-12T23:48:08.220Z,1.40
2023-01-12T23:50:36.115Z,1.00
2023-01-12T23:53:06.938Z,1.13
2023-01-12T23:55:39.050Z,0.90
2023-01-12T23:58:08.098Z,1.00
